sensor_id;sensor_type;location;lat;lon;timestamp;pressure;altitude;pressure_sealevel;temperature;humidity
39999;BME280;25696;42.646;23.368;2022-09-25T00:01:10;94850.59;;;12.04;61.86
39999;BME280;25696;42.646;23.368;2022-09-25T00:03:36;94848.25;;;11.88;61.89
39999;BME280;25696;42.646;23.368;2022-09-25T00:06:02;94850.78;;;11.96;62.22
39999;BME280;25696;42.646;23.368;2022-09-25T00:08:28;94847.88;;;11.98;62.29
39999;BME280;25696;42.646;23.368;2022-09-25T00:10:54;94841.44;;;12.05;62.32
39999;BME280;25696;42.646;23.368;2022-09-25T00:13:19;94842.06;;;12.07;61.63
39999;BME280;25696;42.646;23.368;2022-09-25T00:15:48;94843.75;;;12.08;62.23
39999;BME280;25696;42.646;23.368;2022-09-25T00:18:14;94844.78;;;12.21;61.65
39999;BME280;25696;42.646;23.368;2022-09-25T00:20:40;94847.03;;;11.91;62.30
39999;BME280;25696;42.646;23.368;2022-09-25T00:23:05;94843.28;;;11.85;62.83
39999;BME280;25696;42.646;23.368;2022-09-25T00:25:31;94848.06;;;11.83;63.13
39999;BME280;25696;42.646;23.368;2022-09-25T00:27:56;94845.56;;;11.75;63.02
39999;BME280;25696;42.646;23.368;2022-09-25T00:30:21;94836.03;;;11.79;63.29
39999;BME280;25696;42.646;23.368;2022-09-25T00:32:48;94834.19;;;11.32;63.04
39999;BME280;25696;42.646;23.368;2022-09-25T00:35:13;94837.34;;;11.36;62.96
39999;BME280;25696;42.646;23.368;2022-09-25T00:37:38;94832.44;;;11.59;62.92
39999;BME280;25696;42.646;23.368;2022-09-25T00:40:04;94832.47;;;11.72;62.22
39999;BME280;25696;42.646;23.368;2022-09-25T00:42:30;94834.56;;;11.77;62.63
39999;BME280;25696;42.646;23.368;2022-09-25T00:52:40;94819.00;;;11.79;62.91
39999;BME280;25696;42.646;23.368;2022-09-25T00:55:06;94820.88;;;11.85;62.77
39999;BME280;25696;42.646;23.368;2022-09-25T00:57:32;94826.19;;;11.59;63.97
39999;BME280;25696;42.646;23.368;2022-09-25T01:00:00;94827.06;;;11.72;63.29
39999;BME280;25696;42.646;23.368;2022-09-25T01:02:30;94824.31;;;11.53;62.49
39999;BME280;25696;42.646;23.368;2022-09-25T01:04:58;94828.81;;;11.39;63.36
39999;BME280;25696;42.646;23.368;2022-09-25T01:07:25;94817.41;;;11.37;63.60
39999;BME280;25696;42.646;23.368;2022-09-25T01:09:51;94807.06;;;11.47;63.20
39999;BME280;25696;42.646;23.368;2022-09-25T01:12:16;94814.09;;;11.35;63.69
39999;BME280;25696;42.646;23.368;2022-09-25T01:14:41;94812.59;;;11.26;63.29
39999;BME280;25696;42.646;23.368;2022-09-25T01:17:29;94813.22;;;10.40;64.69
39999;BME280;25696;42.646;23.368;2022-09-25T01:28:20;94805.66;;;10.57;65.70
39999;BME280;25696;42.646;23.368;2022-09-25T01:30:41;94804.13;;;10.47;65.89
39999;BME280;25696;42.646;23.368;2022-09-25T01:34:02;94811.63;;;10.52;66.09
39999;BME280;25696;42.646;23.368;2022-09-25T01:36:34;94804.59;;;10.58;65.38
39999;BME280;25696;42.646;23.368;2022-09-25T01:42:04;94815.53;;;9.73;66.95
39999;BME280;25696;42.646;23.368;2022-09-25T01:44:35;94810.91;;;10.09;65.25
39999;BME280;25696;42.646;23.368;2022-09-25T01:47:09;94812.28;;;9.78;66.68
39999;BME280;25696;42.646;23.368;2022-09-25T01:49:41;94822.44;;;9.40;68.04
39999;BME280;25696;42.646;23.368;2022-09-25T01:52:14;94819.94;;;9.17;69.28
39999;BME280;25696;42.646;23.368;2022-09-25T01:54:48;94826.19;;;9.39;69.21
39999;BME280;25696;42.646;23.368;2022-09-25T02:02:36;94824.88;;;9.77;67.81
39999;BME280;25696;42.646;23.368;2022-09-25T02:05:17;94823.88;;;9.78;67.40
39999;BME280;25696;42.646;23.368;2022-09-25T02:07:49;94817.91;;;9.40;68.73
39999;BME280;25696;42.646;23.368;2022-09-25T02:10:20;94815.56;;;9.16;70.22
39999;BME280;25696;42.646;23.368;2022-09-25T02:12:49;94806.41;;;9.11;70.66
39999;BME280;25696;42.646;23.368;2022-09-25T02:15:20;94806.91;;;9.00;71.01
39999;BME280;25696;42.646;23.368;2022-09-25T02:17:53;94809.09;;;9.11;70.67
39999;BME280;25696;42.646;23.368;2022-09-25T02:20:38;94817.41;;;9.30;70.59
39999;BME280;25696;42.646;23.368;2022-09-25T02:25:37;94814.91;;;9.50;69.64
39999;BME280;25696;42.646;23.368;2022-09-25T02:28:04;94814.13;;;9.14;70.83
39999;BME280;25696;42.646;23.368;2022-09-25T02:30:29;94804.84;;;9.37;69.92
39999;BME280;25696;42.646;23.368;2022-09-25T02:32:55;94821.69;;;9.67;69.18
39999;BME280;25696;42.646;23.368;2022-09-25T02:35:22;94820.84;;;9.66;68.93
39999;BME280;25696;42.646;23.368;2022-09-25T02:37:47;94822.78;;;9.72;68.74
39999;BME280;25696;42.646;23.368;2022-09-25T02:40:13;94819.69;;;10.18;66.89
39999;BME280;25696;42.646;23.368;2022-09-25T02:42:44;94813.81;;;10.35;64.26
39999;BME280;25696;42.646;23.368;2022-09-25T02:48:11;94808.47;;;10.14;65.97
39999;BME280;25696;42.646;23.368;2022-09-25T02:56:07;94813.91;;;9.72;66.96
39999;BME280;25696;42.646;23.368;2022-09-25T02:58:37;94813.25;;;9.49;67.59
39999;BME280;25696;42.646;23.368;2022-09-25T03:01:05;94827.41;;;9.57;67.64
39999;BME280;25696;42.646;23.368;2022-09-25T03:03:34;94825.28;;;9.53;67.55
39999;BME280;25696;42.646;23.368;2022-09-25T03:06:00;94821.97;;;9.72;67.28
39999;BME280;25696;42.646;23.368;2022-09-25T03:08:27;94820.13;;;9.16;69.70
39999;BME280;25696;42.646;23.368;2022-09-25T03:11:02;94813.94;;;9.01;70.60
39999;BME280;25696;42.646;23.368;2022-09-25T03:13:29;94820.44;;;8.91;71.51
39999;BME280;25696;42.646;23.368;2022-09-25T03:16:02;94830.50;;;9.40;69.54
39999;BME280;25696;42.646;23.368;2022-09-25T03:18:29;94816.94;;;9.48;68.71
39999;BME280;25696;42.646;23.368;2022-09-25T03:20:55;94813.91;;;9.15;68.80
39999;BME280;25696;42.646;23.368;2022-09-25T03:23:21;94811.22;;;9.15;68.55
39999;BME280;25696;42.646;23.368;2022-09-25T03:25:46;94815.75;;;9.15;69.23
39999;BME280;25696;42.646;23.368;2022-09-25T03:28:12;94809.34;;;8.95;69.86
39999;BME280;25696;42.646;23.368;2022-09-25T03:30:38;94805.25;;;8.99;70.02
39999;BME280;25696;42.646;23.368;2022-09-25T03:33:09;94802.75;;;8.97;70.00
39999;BME280;25696;42.646;23.368;2022-09-25T03:35:38;94796.97;;;9.36;69.00
39999;BME280;25696;42.646;23.368;2022-09-25T03:38:04;94799.94;;;9.41;68.85
39999;BME280;25696;42.646;23.368;2022-09-25T03:40:32;94800.25;;;8.96;70.09
39999;BME280;25696;42.646;23.368;2022-09-25T03:42:57;94808.34;;;8.52;71.97
39999;BME280;25696;42.646;23.368;2022-09-25T03:45:23;94789.53;;;8.66;71.79
39999;BME280;25696;42.646;23.368;2022-09-25T03:47:49;94811.50;;;8.55;72.20
39999;BME280;25696;42.646;23.368;2022-09-25T03:50:14;94813.34;;;8.69;71.47
39999;BME280;25696;42.646;23.368;2022-09-25T03:52:39;94810.97;;;8.96;70.15
39999;BME280;25696;42.646;23.368;2022-09-25T03:55:05;94811.75;;;8.89;70.76
39999;BME280;25696;42.646;23.368;2022-09-25T03:57:31;94814.63;;;9.24;69.24
39999;BME280;25696;42.646;23.368;2022-09-25T03:59:56;94812.78;;;9.45;67.93
39999;BME280;25696;42.646;23.368;2022-09-25T04:02:28;94815.38;;;9.53;67.73
39999;BME280;25696;42.646;23.368;2022-09-25T04:04:53;94817.78;;;9.48;68.34
39999;BME280;25696;42.646;23.368;2022-09-25T04:07:19;94813.41;;;9.68;67.46
39999;BME280;25696;42.646;23.368;2022-09-25T04:09:44;94819.88;;;9.95;66.49
39999;BME280;25696;42.646;23.368;2022-09-25T04:12:13;94832.31;;;9.96;65.68
39999;BME280;25696;42.646;23.368;2022-09-25T04:14:39;94832.97;;;9.77;66.74
39999;BME280;25696;42.646;23.368;2022-09-25T04:17:06;94841.88;;;9.78;66.69
39999;BME280;25696;42.646;23.368;2022-09-25T04:19:32;94827.78;;;9.76;66.88
39999;BME280;25696;42.646;23.368;2022-09-25T04:21:58;94831.69;;;9.16;69.20
39999;BME280;25696;42.646;23.368;2022-09-25T04:24:23;94832.03;;;8.92;70.48
39999;BME280;25696;42.646;23.368;2022-09-25T04:27:07;94837.16;;;9.44;68.91
39999;BME280;25696;42.646;23.368;2022-09-25T04:29:33;94845.09;;;9.52;68.14
39999;BME280;25696;42.646;23.368;2022-09-25T04:31:59;94836.19;;;8.95;70.11
39999;BME280;25696;42.646;23.368;2022-09-25T04:34:42;94838.69;;;8.96;70.29
39999;BME280;25696;42.646;23.368;2022-09-25T04:37:08;94829.44;;;8.99;70.46
39999;BME280;25696;42.646;23.368;2022-09-25T04:39:34;94834.88;;;9.05;70.35
39999;BME280;25696;42.646;23.368;2022-09-25T04:42:00;94831.78;;;8.87;71.67
39999;BME280;25696;42.646;23.368;2022-09-25T04:44:25;94828.34;;;8.78;71.99
39999;BME280;25696;42.646;23.368;2022-09-25T04:46:51;94832.16;;;8.40;73.21
39999;BME280;25696;42.646;23.368;2022-09-25T04:49:17;94839.00;;;8.57;72.80
39999;BME280;25696;42.646;23.368;2022-09-25T04:51:42;94828.06;;;8.44;73.24
39999;BME280;25696;42.646;23.368;2022-09-25T04:54:08;94819.09;;;8.52;73.26
39999;BME280;25696;42.646;23.368;2022-09-25T04:56:33;94822.34;;;8.76;72.41
39999;BME280;25696;42.646;23.368;2022-09-25T04:58:58;94825.16;;;8.89;70.99
39999;BME280;25696;42.646;23.368;2022-09-25T05:01:24;94828.03;;;9.03;71.21
39999;BME280;25696;42.646;23.368;2022-09-25T05:03:50;94831.59;;;9.24;70.43
39999;BME280;25696;42.646;23.368;2022-09-25T05:06:18;94834.75;;;9.49;69.11
39999;BME280;25696;42.646;23.368;2022-09-25T05:08:46;94837.16;;;9.44;69.48
39999;BME280;25696;42.646;23.368;2022-09-25T05:11:11;94838.34;;;9.77;68.19
39999;BME280;25696;42.646;23.368;2022-09-25T05:13:37;94834.66;;;10.06;67.04
39999;BME280;25696;42.646;23.368;2022-09-25T05:16:06;94834.69;;;10.33;66.04
39999;BME280;25696;42.646;23.368;2022-09-25T05:18:31;94831.88;;;10.76;65.27
39999;BME280;25696;42.646;23.368;2022-09-25T05:21:01;94832.06;;;10.74;64.92
39999;BME280;25696;42.646;23.368;2022-09-25T05:23:27;94832.66;;;10.70;64.53
39999;BME280;25696;42.646;23.368;2022-09-25T05:25:55;94827.47;;;10.68;64.98
39999;BME280;25696;42.646;23.368;2022-09-25T05:28:26;94822.66;;;10.57;65.94
39999;BME280;25696;42.646;23.368;2022-09-25T05:30:52;94823.56;;;10.36;66.96
39999;BME280;25696;42.646;23.368;2022-09-25T05:33:18;94824.22;;;10.79;65.70
39999;BME280;25696;42.646;23.368;2022-09-25T05:35:43;94823.28;;;11.00;64.45
39999;BME280;25696;42.646;23.368;2022-09-25T05:38:08;94822.72;;;11.11;63.44
39999;BME280;25696;42.646;23.368;2022-09-25T05:40:33;94821.63;;;11.53;61.60
39999;BME280;25696;42.646;23.368;2022-09-25T05:43:00;94829.59;;;12.00;59.83
39999;BME280;25696;42.646;23.368;2022-09-25T05:45:26;94823.56;;;12.57;58.02
39999;BME280;25696;42.646;23.368;2022-09-25T05:50:26;94818.88;;;13.60;54.85
39999;BME280;25696;42.646;23.368;2022-09-25T05:52:55;94820.84;;;14.09;52.67
39999;BME280;25696;42.646;23.368;2022-09-25T05:55:21;94826.38;;;14.52;51.35
39999;BME280;25696;42.646;23.368;2022-09-25T05:57:46;94838.38;;;15.23;48.99
39999;BME280;25696;42.646;23.368;2022-09-25T06:00:12;94821.94;;;15.37;48.70
39999;BME280;25696;42.646;23.368;2022-09-25T06:02:38;94826.13;;;14.78;50.37
39999;BME280;25696;42.646;23.368;2022-09-25T06:05:03;94833.41;;;15.57;48.67
39999;BME280;25696;42.646;23.368;2022-09-25T06:07:29;94824.31;;;16.63;47.18
39999;BME280;25696;42.646;23.368;2022-09-25T06:09:54;94822.41;;;16.87;45.58
39999;BME280;25696;42.646;23.368;2022-09-25T06:12:20;94810.69;;;17.21;43.98
39999;BME280;25696;42.646;23.368;2022-09-25T06:14:47;94813.31;;;17.79;43.16
39999;BME280;25696;42.646;23.368;2022-09-25T06:17:12;94830.31;;;18.42;41.73
39999;BME280;25696;42.646;23.368;2022-09-25T06:19:38;94818.84;;;18.12;41.20
39999;BME280;25696;42.646;23.368;2022-09-25T06:22:03;94822.91;;;16.84;44.96
39999;BME280;25696;42.646;23.368;2022-09-25T06:24:29;94822.69;;;18.00;42.82
39999;BME280;25696;42.646;23.368;2022-09-25T06:26:54;94827.31;;;17.99;42.66
39999;BME280;25696;42.646;23.368;2022-09-25T06:29:19;94833.91;;;18.15;42.28
39999;BME280;25696;42.646;23.368;2022-09-25T06:31:45;94835.88;;;17.63;43.68
39999;BME280;25696;42.646;23.368;2022-09-25T06:34:10;94827.97;;;18.34;41.77
39999;BME280;25696;42.646;23.368;2022-09-25T06:36:36;94829.84;;;19.12;39.62
39999;BME280;25696;42.646;23.368;2022-09-25T06:39:02;94824.22;;;19.02;40.38
39999;BME280;25696;42.646;23.368;2022-09-25T06:41:28;94829.94;;;19.17;40.48
39999;BME280;25696;42.646;23.368;2022-09-25T06:43:53;94832.47;;;19.23;40.27
39999;BME280;25696;42.646;23.368;2022-09-25T06:46:19;94832.09;;;19.53;39.96
39999;BME280;25696;42.646;23.368;2022-09-25T06:48:54;94824.22;;;19.78;38.63
39999;BME280;25696;42.646;23.368;2022-09-25T06:51:24;94831.00;;;20.19;37.93
39999;BME280;25696;42.646;23.368;2022-09-25T06:53:52;94827.06;;;20.32;37.90
39999;BME280;25696;42.646;23.368;2022-09-25T06:56:18;94830.94;;;18.78;39.83
39999;BME280;25696;42.646;23.368;2022-09-25T06:58:44;94832.03;;;18.32;41.56
39999;BME280;25696;42.646;23.368;2022-09-25T07:01:09;94826.97;;;18.85;40.59
39999;BME280;25696;42.646;23.368;2022-09-25T07:03:36;94822.25;;;18.19;42.00
39999;BME280;25696;42.646;23.368;2022-09-25T07:06:17;94835.78;;;17.86;41.71
39999;BME280;25696;42.646;23.368;2022-09-25T07:08:44;94835.69;;;17.81;42.66
39999;BME280;25696;42.646;23.368;2022-09-25T07:11:22;94833.59;;;17.60;42.83
39999;BME280;25696;42.646;23.368;2022-09-25T07:13:48;94831.91;;;18.10;41.95
39999;BME280;25696;42.646;23.368;2022-09-25T07:16:17;94843.44;;;18.74;40.64
39999;BME280;25696;42.646;23.368;2022-09-25T07:18:42;94857.38;;;19.27;40.25
39999;BME280;25696;42.646;23.368;2022-09-25T07:21:13;94862.13;;;19.15;40.20
39999;BME280;25696;42.646;23.368;2022-09-25T07:23:38;94862.59;;;19.12;40.15
39999;BME280;25696;42.646;23.368;2022-09-25T07:26:06;94869.38;;;18.93;40.23
39999;BME280;25696;42.646;23.368;2022-09-25T07:28:32;94869.16;;;19.11;39.47
39999;BME280;25696;42.646;23.368;2022-09-25T07:30:57;94855.91;;;18.41;41.01
39999;BME280;25696;42.646;23.368;2022-09-25T07:33:23;94868.59;;;18.48;40.82
39999;BME280;25696;42.646;23.368;2022-09-25T07:35:49;94863.53;;;18.84;41.22
39999;BME280;25696;42.646;23.368;2022-09-25T07:38:15;94862.59;;;18.62;41.36
39999;BME280;25696;42.646;23.368;2022-09-25T07:40:40;94858.13;;;19.22;39.63
39999;BME280;25696;42.646;23.368;2022-09-25T07:43:06;94852.84;;;18.99;40.01
39999;BME280;25696;42.646;23.368;2022-09-25T07:45:31;94845.72;;;19.15;40.37
39999;BME280;25696;42.646;23.368;2022-09-25T07:47:57;94836.84;;;19.41;40.08
39999;BME280;25696;42.646;23.368;2022-09-25T07:50:24;94827.38;;;19.10;40.51
39999;BME280;25696;42.646;23.368;2022-09-25T07:52:51;94827.06;;;19.07;40.45
39999;BME280;25696;42.646;23.368;2022-09-25T07:55:16;94815.25;;;18.23;41.59
39999;BME280;25696;42.646;23.368;2022-09-25T07:57:42;94813.88;;;17.93;42.23
39999;BME280;25696;42.646;23.368;2022-09-25T08:00:08;94803.09;;;17.86;41.69
39999;BME280;25696;42.646;23.368;2022-09-25T08:02:34;94796.28;;;18.62;40.84
39999;BME280;25696;42.646;23.368;2022-09-25T08:05:00;94803.56;;;18.89;40.59
39999;BME280;25696;42.646;23.368;2022-09-25T08:07:27;94810.53;;;19.35;38.90
39999;BME280;25696;42.646;23.368;2022-09-25T08:09:52;94810.88;;;19.60;38.65
39999;BME280;25696;42.646;23.368;2022-09-25T08:12:18;94816.47;;;19.70;38.19
39999;BME280;25696;42.646;23.368;2022-09-25T08:18:09;94814.66;;;20.82;35.86
39999;BME280;25696;42.646;23.368;2022-09-25T08:20:35;94811.03;;;21.04;35.77
39999;BME280;25696;42.646;23.368;2022-09-25T08:27:59;94790.81;;;21.56;34.04
39999;BME280;25696;42.646;23.368;2022-09-25T08:30:28;94789.22;;;21.66;34.50
39999;BME280;25696;42.646;23.368;2022-09-25T08:32:54;94782.63;;;21.61;33.65
39999;BME280;25696;42.646;23.368;2022-09-25T08:35:19;94772.25;;;21.74;33.61
39999;BME280;25696;42.646;23.368;2022-09-25T08:37:46;94774.44;;;21.15;34.65
39999;BME280;25696;42.646;23.368;2022-09-25T08:40:21;94774.31;;;21.41;34.12
39999;BME280;25696;42.646;23.368;2022-09-25T08:42:51;94770.75;;;22.13;33.43
39999;BME280;25696;42.646;23.368;2022-09-25T08:45:27;94768.09;;;22.43;32.38
39999;BME280;25696;42.646;23.368;2022-09-25T08:48:21;94770.31;;;22.81;32.04
39999;BME280;25696;42.646;23.368;2022-09-25T08:51:07;94765.63;;;22.52;32.52
39999;BME280;25696;42.646;23.368;2022-09-25T08:56:13;94767.88;;;22.95;31.67
39999;BME280;25696;42.646;23.368;2022-09-25T08:58:43;94773.03;;;23.32;31.00
39999;BME280;25696;42.646;23.368;2022-09-25T09:01:38;94770.16;;;23.82;30.09
39999;BME280;25696;42.646;23.368;2022-09-25T09:06:30;94765.88;;;24.63;28.42
39999;BME280;25696;42.646;23.368;2022-09-25T09:09:16;94760.03;;;25.09;28.32
39999;BME280;25696;42.646;23.368;2022-09-25T09:11:47;94757.53;;;25.65;27.25
39999;BME280;25696;42.646;23.368;2022-09-25T09:14:17;94760.94;;;25.28;27.09
39999;BME280;25696;42.646;23.368;2022-09-25T09:19:22;94741.09;;;26.25;26.01
39999;BME280;25696;42.646;23.368;2022-09-25T09:24:16;94736.59;;;26.29;25.89
39999;BME280;25696;42.646;23.368;2022-09-25T09:32:18;94727.47;;;24.43;27.91
39999;BME280;25696;42.646;23.368;2022-09-25T09:35:01;94733.56;;;25.08;27.77
39999;BME280;25696;42.646;23.368;2022-09-25T09:45:17;94725.59;;;28.04;24.45
39999;BME280;25696;42.646;23.368;2022-09-25T09:47:48;94727.22;;;28.68;23.05
39999;BME280;25696;42.646;23.368;2022-09-25T09:52:44;94723.53;;;33.05;18.83
39999;BME280;25696;42.646;23.368;2022-09-25T09:57:51;94718.72;;;32.35;18.96
39999;BME280;25696;42.646;23.368;2022-09-25T10:00:18;94713.59;;;29.77;21.34
39999;BME280;25696;42.646;23.368;2022-09-25T10:05:32;94708.47;;;26.83;24.62
39999;BME280;25696;42.646;23.368;2022-09-25T10:08:00;94707.22;;;28.08;24.11
39999;BME280;25696;42.646;23.368;2022-09-25T10:10:36;94705.50;;;29.89;22.67
39999;BME280;25696;42.646;23.368;2022-09-25T10:13:03;94704.84;;;30.49;21.92
39999;BME280;25696;42.646;23.368;2022-09-25T10:15:35;94701.47;;;28.90;23.05
39999;BME280;25696;42.646;23.368;2022-09-25T10:18:02;94698.38;;;29.35;22.41
39999;BME280;25696;42.646;23.368;2022-09-25T10:20:53;94703.41;;;28.53;23.28
39999;BME280;25696;42.646;23.368;2022-09-25T10:23:59;94700.63;;;28.18;23.80
39999;BME280;25696;42.646;23.368;2022-09-25T10:25:59;94684.13;;;27.72;25.13
39999;BME280;25696;42.646;23.368;2022-09-25T10:28:33;94694.03;;;27.32;25.20
39999;BME280;25696;42.646;23.368;2022-09-25T10:31:00;94689.97;;;25.15;27.30
39999;BME280;25696;42.646;23.368;2022-09-25T10:33:29;94693.44;;;23.80;29.13
39999;BME280;25696;42.646;23.368;2022-09-25T10:35:54;94674.97;;;23.91;28.70
39999;BME280;25696;42.646;23.368;2022-09-25T10:38:23;94672.88;;;23.68;28.66
39999;BME280;25696;42.646;23.368;2022-09-25T10:41:03;94671.78;;;22.75;29.89
39999;BME280;25696;42.646;23.368;2022-09-25T10:43:31;94665.41;;;22.99;29.80
39999;BME280;25696;42.646;23.368;2022-09-25T10:46:10;94667.09;;;22.80;30.26
39999;BME280;25696;42.646;23.368;2022-09-25T10:48:37;94669.81;;;22.95;30.27
39999;BME280;25696;42.646;23.368;2022-09-25T10:51:22;94666.53;;;22.88;30.13
39999;BME280;25696;42.646;23.368;2022-09-25T10:54:09;94660.22;;;22.93;30.66
39999;BME280;25696;42.646;23.368;2022-09-25T10:56:35;94658.84;;;22.95;30.14
39999;BME280;25696;42.646;23.368;2022-09-25T10:59:09;94664.84;;;23.02;30.93
39999;BME280;25696;42.646;23.368;2022-09-25T11:01:40;94663.09;;;23.32;29.87
39999;BME280;25696;42.646;23.368;2022-09-25T11:04:30;94655.75;;;23.17;29.80
39999;BME280;25696;42.646;23.368;2022-09-25T11:07:00;94651.59;;;23.35;29.54
39999;BME280;25696;42.646;23.368;2022-09-25T11:09:29;94641.25;;;23.01;29.73
39999;BME280;25696;42.646;23.368;2022-09-25T11:12:08;94648.13;;;22.99;29.42
39999;BME280;25696;42.646;23.368;2022-09-25T11:14:44;94641.75;;;23.13;29.88
39999;BME280;25696;42.646;23.368;2022-09-25T11:28:41;94640.81;;;23.48;28.96
39999;BME280;25696;42.646;23.368;2022-09-25T11:31:28;94628.72;;;23.49;29.29
39999;BME280;25696;42.646;23.368;2022-09-25T11:36:34;94628.44;;;23.51;29.49
39999;BME280;25696;42.646;23.368;2022-09-25T11:42:27;94613.16;;;23.78;28.79
39999;BME280;25696;42.646;23.368;2022-09-25T11:45:05;94615.47;;;24.00;28.62
39999;BME280;25696;42.646;23.368;2022-09-25T11:47:57;94608.31;;;24.04;28.74
39999;BME280;25696;42.646;23.368;2022-09-25T11:50:27;94605.44;;;23.80;28.49
39999;BME280;25696;42.646;23.368;2022-09-25T11:52:59;94605.16;;;23.82;28.53
39999;BME280;25696;42.646;23.368;2022-09-25T11:55:36;94604.53;;;23.95;28.07
39999;BME280;25696;42.646;23.368;2022-09-25T12:03:23;94587.94;;;23.02;29.24
39999;BME280;25696;42.646;23.368;2022-09-25T12:08:39;94583.06;;;22.89;28.92
39999;BME280;25696;42.646;23.368;2022-09-25T12:18:46;94574.44;;;23.70;27.17
39999;BME280;25696;42.646;23.368;2022-09-25T12:21:16;94567.34;;;23.64;27.47
39999;BME280;25696;42.646;23.368;2022-09-25T12:27:05;94563.38;;;23.75;27.08
39999;BME280;25696;42.646;23.368;2022-09-25T12:35:02;94556.50;;;23.39;27.37
39999;BME280;25696;42.646;23.368;2022-09-25T12:40:52;94549.66;;;24.14;26.34
39999;BME280;25696;42.646;23.368;2022-09-25T12:43:03;94553.50;;;24.13;26.65
39999;BME280;25696;42.646;23.368;2022-09-25T12:45:51;94543.88;;;24.10;26.55
39999;BME280;25696;42.646;23.368;2022-09-25T12:48:23;94537.66;;;24.00;26.47
39999;BME280;25696;42.646;23.368;2022-09-25T12:50:58;94540.69;;;24.32;26.32
39999;BME280;25696;42.646;23.368;2022-09-25T12:53:59;94535.75;;;24.57;26.18
39999;BME280;25696;42.646;23.368;2022-09-25T12:56:20;94524.91;;;24.66;25.52
39999;BME280;25696;42.646;23.368;2022-09-25T13:07:02;94521.25;;;23.46;26.14
39999;BME280;25696;42.646;23.368;2022-09-25T13:09:40;94509.22;;;23.32;25.97
39999;BME280;25696;42.646;23.368;2022-09-25T13:14:51;94482.66;;;23.66;25.85
39999;BME280;25696;42.646;23.368;2022-09-25T13:17:18;94486.72;;;23.35;26.04
39999;BME280;25696;42.646;23.368;2022-09-25T13:19:44;94489.16;;;23.31;26.15
39999;BME280;25696;42.646;23.368;2022-09-25T13:22:15;94490.56;;;23.34;26.26
39999;BME280;25696;42.646;23.368;2022-09-25T13:27:14;94478.25;;;24.27;25.45
39999;BME280;25696;42.646;23.368;2022-09-25T13:29:40;94486.91;;;24.39;25.39
39999;BME280;25696;42.646;23.368;2022-09-25T13:32:16;94472.66;;;24.61;24.87
39999;BME280;25696;42.646;23.368;2022-09-25T13:34:43;94471.81;;;24.60;24.88
39999;BME280;25696;42.646;23.368;2022-09-25T13:37:09;94476.16;;;24.66;24.66
39999;BME280;25696;42.646;23.368;2022-09-25T13:39:36;94475.56;;;24.69;25.11
39999;BME280;25696;42.646;23.368;2022-09-25T13:44:51;94462.69;;;24.89;24.95
39999;BME280;25696;42.646;23.368;2022-09-25T13:52:31;94450.88;;;25.25;24.52
39999;BME280;25696;42.646;23.368;2022-09-25T14:00:18;94444.00;;;25.46;25.03
39999;BME280;25696;42.646;23.368;2022-09-25T14:02:44;94449.56;;;25.60;24.91
39999;BME280;25696;42.646;23.368;2022-09-25T14:05:12;94439.72;;;25.54;24.70
39999;BME280;25696;42.646;23.368;2022-09-25T14:07:40;94448.81;;;25.36;25.19
39999;BME280;25696;42.646;23.368;2022-09-25T14:10:07;94444.78;;;25.66;24.44
39999;BME280;25696;42.646;23.368;2022-09-25T14:12:36;94448.22;;;25.76;24.79
39999;BME280;25696;42.646;23.368;2022-09-25T14:15:30;94447.34;;;25.94;24.27
39999;BME280;25696;42.646;23.368;2022-09-25T14:17:52;94445.97;;;26.10;24.77
39999;BME280;25696;42.646;23.368;2022-09-25T14:20:40;94447.91;;;26.10;24.45
39999;BME280;25696;42.646;23.368;2022-09-25T14:25:36;94433.94;;;26.34;24.14
39999;BME280;25696;42.646;23.368;2022-09-25T14:28:12;94429.66;;;26.27;24.35
39999;BME280;25696;42.646;23.368;2022-09-25T14:30:46;94440.38;;;26.15;24.91
39999;BME280;25696;42.646;23.368;2022-09-25T14:33:28;94438.53;;;25.92;24.24
39999;BME280;25696;42.646;23.368;2022-09-25T14:36:01;94435.75;;;24.38;25.68
39999;BME280;25696;42.646;23.368;2022-09-25T14:43:56;94439.25;;;25.10;25.54
39999;BME280;25696;42.646;23.368;2022-09-25T14:46:27;94438.81;;;25.40;25.51
39999;BME280;25696;42.646;23.368;2022-09-25T14:48:55;94440.19;;;25.42;25.61
39999;BME280;25696;42.646;23.368;2022-09-25T14:51:22;94434.88;;;25.46;26.10
39999;BME280;25696;42.646;23.368;2022-09-25T14:53:55;94424.31;;;25.53;26.60
39999;BME280;25696;42.646;23.368;2022-09-25T14:56:22;94433.38;;;25.35;27.04
39999;BME280;25696;42.646;23.368;2022-09-25T14:58:49;94429.88;;;25.11;27.88
39999;BME280;25696;42.646;23.368;2022-09-25T15:01:22;94436.50;;;25.10;27.71
39999;BME280;25696;42.646;23.368;2022-09-25T15:03:50;94432.63;;;25.11;27.70
39999;BME280;25696;42.646;23.368;2022-09-25T15:06:24;94428.81;;;24.64;29.14
39999;BME280;25696;42.646;23.368;2022-09-25T15:08:50;94430.22;;;24.62;29.27
39999;BME280;25696;42.646;23.368;2022-09-25T15:11:16;94440.97;;;24.63;28.94
39999;BME280;25696;42.646;23.368;2022-09-25T15:13:43;94437.81;;;24.51;28.80
39999;BME280;25696;42.646;23.368;2022-09-25T15:16:24;94433.75;;;24.44;29.50
39999;BME280;25696;42.646;23.368;2022-09-25T15:19:21;94424.97;;;24.18;28.80
39999;BME280;25696;42.646;23.368;2022-09-25T15:21:46;94436.66;;;24.00;29.29
39999;BME280;25696;42.646;23.368;2022-09-25T15:24:16;94425.44;;;23.68;29.91
39999;BME280;25696;42.646;23.368;2022-09-25T15:26:44;94440.38;;;23.57;30.48
39999;BME280;25696;42.646;23.368;2022-09-25T15:29:17;94428.47;;;23.33;30.14
39999;BME280;25696;42.646;23.368;2022-09-25T15:31:44;94425.13;;;23.36;30.30
39999;BME280;25696;42.646;23.368;2022-09-25T15:34:22;94427.69;;;23.22;30.52
39999;BME280;25696;42.646;23.368;2022-09-25T15:36:50;94417.56;;;23.17;30.35
39999;BME280;25696;42.646;23.368;2022-09-25T15:39:20;94417.63;;;23.07;30.15
39999;BME280;25696;42.646;23.368;2022-09-25T15:41:46;94421.22;;;23.08;30.29